METAR AND TAF INFORMATION
METAR FOR LQSA
ADDS - METARS form results

(2017 UTC 19 October 2018)
Data provider http://aviationweather.gov/metar/data/
 
METAR text: LQSA 192000Z 35003KT 9999 BKN045 14/10 Q1021 NOSIG
Conditions at: LQSA (SARAJEVO/BUTMIR , CS) observed 2000 UTC 19 October 2018
Temperature: 14.0°C (57°F)
Dewpoint: 10.0°C (50°F) [RH = 77%]
Pressure (altimeter): 30.15 inches Hg (1021.0 mb)
Winds: from the N (350 degrees) at 3 MPH (3 knots; 1.5 m/s)
Visibility: 6 or more miles (10+ km)
Ceiling: 4500 feet AGL
Clouds: broken clouds at 4500 feet AGL
Weather: no significant weather observed at this time

METAR text: LQSA 191930Z 35004KT 9999 BKN045 14/10 Q1021 NOSIG
Conditions at: LQSA (SARAJEVO/BUTMIR , CS) observed 1930 UTC 19 October 2018
Temperature: 14.0°C (57°F)
Dewpoint: 10.0°C (50°F) [RH = 77%]
Pressure (altimeter): 30.15 inches Hg (1021.0 mb)
Winds: from the N (350 degrees) at 5 MPH (4 knots; 2.1 m/s)
Visibility: 6 or more miles (10+ km)
Ceiling: 4500 feet AGL
Clouds: broken clouds at 4500 feet AGL
Weather: no significant weather observed at this time

Forecast for: LQSA (SARAJEVO/BUTMIR , CS)
Text: TAF LQSA 191700Z 1918/2018 30005KT 9999 SCT055 TX15/1918Z TN08/2004Z
Forecast period: 1800 UTC 19 October 2018 to 1800 UTC 20 October 2018
Forecast type: FROM: standard forecast or significant change
Winds: from the WNW (300 degrees) at 6 MPH (5 knots; 2.6 m/s)
Visibility: 6 or more miles 10+ km)
Ceiling: at least 12,000 feet AGL
Clouds: scattered clouds at 5500 feet AGL
Weather: no significant weather forecast for this period
Text: PROB30
Forecast period: 0300 to 0800 UTC 20 October 2018
Forecast type: TEMPORARY: The following changes expected for less than half the time period
Visibility: 1.86 miles (2.99 km)
Ceiling: 1000 feet AGL
Clouds: broken clouds at 1000 feet AGL
broken clouds at 4000 feet AGL
Weather: -RA BR  (light rain, mist)

 AIRPORT MAP

 RUNWAY INFORMATION
Runway 12 Runway length 8666 ft Runway width 150 ft
Runway elevation 1643 ft Runway displaced threshold 333 ft Runway heading 117
Runway 30 Runway length 8666 ft Runway width 150 ft
Runway elevation 1690 ft Runway displaced threshold 1666 ft Runway heading 297

 AIRPORT FREQUENCIES
Type APP Name APP Frequency 136.45 MHZ
Type GCA Name GCA Frequency 119.4 MHZ
Type GND Name GND Frequency 121.9 MHZ
Type TWR Name TWR Frequency 118.25 MHZ

 AIRPORT NEAR NAVIGATION AIDS
Type NDB Name Sarajevo Frequency 436 KHZ
Type VOR-DME Name Sarajevo Frequency 116700 KHZ
Type NDB Name Kobiljaca Frequency 358 KHZ
Type VORTAC Name Sarajevo Frequency 108850 KHZ



Copyright © 2011 - 2018 BirgenAir Virtual Airlines. All rights reserved. Developed by Goktug Unver